タシュケント の空港の天気 - METARとTAF

タシケント空港 ( UTTT / TAS ) - ウズベキスタン タシュケント
飛行場実況気象(Metar)
観測時間01/21 22:30 UZT (01/21 17:30 UTC)
風向・風速東 4m/s
視程4000m
天気現象
なし
気温3℃
湿度60%
気圧1014hPa
METARUTTT 211730Z 08008KT 4000 FU NSC 03/M04 Q1014 R08R/CLRD70 NOSIG
過去の天気等 Google飛行場航空写真 Wunderground天気予報

過去48時間のMETAR

飛行場予報(TAF)
発表時間: 1/21 22:00 UZT (1/21 17:00 UTC)
予報対象時間: 21日23時 UZT ~ 22日23時 UZT
風向・風速東 5m/s
視程7,000m
なし
21日23時 UZT ~ 22日8時 UZT に一時的に
視程3,000m
天気現象もや 煙
TAF UTTT 211700Z 2118/2218 08010KT 7000 NSC
TEMPO 2118/2203 3000 BR FU